UUEEUUDL

Guest
Details From UUEE - Moscou Sheremetyevo
To UUDL - Tunoshna
Flight Number -
Tags Generated
Created
Modified
Stats Distance 131 nm / 243 km
Max Altitude 0 ft / 0 m
Waypoints 2
Social Downloads 2
Likes 0
Share VATSIM

Download

Looking for another format? Having issues loading an existing format? Contact us
Advertisement - Login to hide

Notes

Generated

Route

UUEE UUDL

ID Type Via Altitude Latitude Longitude Leg Dist Tot Dist Heading (true) Name
O UUEE APT - 0 ft / 0 m 55.96979˚ 37.38673˚ - 0 nm - -
O UUDL APT - 0 ft / 0 m 57.55462˚ 40.13490˚ 131 nm 131 nm 42° / 45° -

Altitude Profile

Advertisement - Login to hide

UUEE

Details ICAO UUEE (SVO)
Name Moscou Sheremetyevo
Region Russia
Timezone Europe/Moscow (UTC+3.0)
Stats Elevation 622 ft / 190 m (AMSL)
Location 55.972642° 37.414586°
Runways 2
Magnetic Variation 11.166° E

METAR

UUEE 151800Z 16004MPS 130V210 9999 BKN011 02/M01 Q1012 R24R/290145 R24L/290151 NOSIG

Decode

TAF

TAF UUEE 151353Z 1515/1615 18004MPS 9999 OVC009 TX04/1615Z TN00/1518Z TEMPO 1516/1603 OVC004 BECMG 1603/1605 5000 -RA OVC004 TEMPO 1605/1615 16009MPS -SHRA SCT012CB

Decode

Departure Runways

ID Width Length Bearing (true) Bearing (mag) Surface Threshold Offset Overrun Length
07L 197 ft / 60 m 11,613 ft / 3,540 m 74.99° 63.82° Concrete 0 ft / 0 m 240 ft / 73 m
07R 197 ft / 60 m 12,127 ft / 3,696 m 75.03° 63.86° Concrete 0 ft / 0 m 235 ft / 72 m
25L 197 ft / 60 m 12,127 ft / 3,696 m 255.08° 243.91° Concrete 0 ft / 0 m 245 ft / 75 m
25R 197 ft / 60 m 11,613 ft / 3,540 m 255.04° 243.87° Concrete 0 ft / 0 m 245 ft / 75 m

UUDL

Details ICAO UUDL (IAR)
Name TUNOSHNA
Region Russia
Timezone Europe/Moscow (UTC+3.0)
Stats Elevation 305 ft / 93 m (AMSL)
Location 57.560668° 40.157367°
Runways 1
Magnetic Variation 12.626° E

METAR

UUDL 151800Z 17002MPS 9999 OVC014 02/00 Q1014 R23/610348 NOSIG RMK QFE752

Decode

TAF

TAF UUDL 151655Z 1518/1618 15003MPS 4000 -RA BR OVC011 TEMPO 1518/1606 1000 BR OVC003 TEMPO 1606/1618 15007G12MPS BKN006 OVC011

Decode

Destination Runways

ID Width Length Bearing (true) Bearing (mag) Surface Threshold Offset Overrun Length
05 144 ft / 44 m 9,842 ft / 3,000 m 63.33° 50.70° Asphalt 0 ft / 0 m 160 ft / 49 m
23 144 ft / 44 m 9,842 ft / 3,000 m 243.37° 230.74° Asphalt 0 ft / 0 m 150 ft / 46 m

Approach Navaids

Runway Type Ident Frequency Range Bearing (true) Bearing (mag) Slope Elevation
23 Localiser IRG 110.50 MHz 18 nm / 33 km 244.13° 231.50° - 305 ft / 93 m (AMSL)
23 Glidescope IRG 110.50 MHz 10 nm / 19 km 243.35° 230.72° 3.00° 305 ft / 93 m (AMSL)

Popular Alternatives